createdAt,value
2019-03-01T00:05:10.405Z,63.66
2019-03-01T00:08:18.800Z,63.79
2019-03-01T00:15:01.764Z,63.49
2019-03-01T00:18:02.424Z,63.40
2019-03-01T00:21:12.223Z,63.32
2019-03-01T00:24:39.766Z,63.42
2019-03-01T00:28:07.305Z,63.45
2019-03-01T00:31:17.022Z,63.58
2019-03-01T00:34:17.675Z,64.00
2019-03-01T00:37:45.221Z,64.15
2019-03-01T00:40:54.970Z,63.93
2019-03-01T00:44:04.783Z,64.07
2019-03-01T00:46:53.676Z,64.51
2019-03-01T00:49:42.678Z,64.50
2019-03-01T00:52:31.501Z,64.75
2019-03-01T00:55:20.304Z,64.75
2019-03-01T00:58:09.231Z,64.57
2019-03-01T01:00:58.015Z,64.74
2019-03-01T01:03:46.887Z,64.67
2019-03-01T01:06:35.684Z,64.71
2019-03-01T01:09:24.594Z,64.94
2019-03-01T01:12:13.471Z,65.00
2019-03-01T01:15:02.320Z,64.96
2019-03-01T01:17:51.168Z,65.09
2019-03-01T01:20:40.015Z,65.35
2019-03-01T01:23:09.497Z,65.37
2019-03-01T01:25:38.980Z,65.36
2019-03-01T01:28:08.526Z,65.61
2019-03-01T01:30:38.015Z,65.59
2019-03-01T01:33:07.495Z,65.76
2019-03-01T01:35:37.049Z,65.71
2019-03-01T01:38:06.544Z,65.72
2019-03-01T01:40:36.043Z,65.58
2019-03-01T01:43:05.530Z,65.90
2019-03-01T01:45:34.990Z,65.40
2019-03-01T01:48:04.486Z,65.70
2019-03-01T01:50:33.979Z,65.93
2019-03-01T01:53:03.460Z,65.83
2019-03-01T01:55:32.944Z,65.80
2019-03-01T01:58:02.418Z,66.00
2019-03-01T02:00:31.981Z,65.92
2019-03-01T02:03:01.468Z,65.85
2019-03-01T02:05:30.949Z,66.10
2019-03-01T02:08:00.414Z,66.14
2019-03-01T02:10:29.983Z,66.17
2019-03-01T02:12:59.441Z,66.16
2019-03-01T02:15:29.072Z,66.01
2019-03-01T02:17:58.539Z,66.12
2019-03-01T02:20:28.029Z,66.00
2019-03-01T02:22:57.567Z,66.00
2019-03-01T02:25:27.051Z,65.89
2019-03-01T02:27:56.524Z,65.91
2019-03-01T02:30:39.311Z,66.01
2019-03-01T02:33:08.780Z,65.94
2019-03-01T02:35:38.288Z,65.87
2019-03-01T02:38:07.843Z,65.91
2019-03-01T02:40:37.691Z,65.83
2019-03-01T02:43:07.476Z,65.80
2019-03-01T02:45:36.984Z,66.16
2019-03-01T02:48:06.584Z,65.88
2019-03-01T02:50:36.060Z,66.14
2019-03-01T02:53:05.624Z,66.00
2019-03-01T02:55:35.079Z,66.05
2019-03-01T02:58:04.582Z,66.17
2019-03-01T03:00:34.206Z,66.19
2019-03-01T03:03:03.701Z,66.13
2019-03-01T03:05:34.831Z,66.02
2019-03-01T03:08:09.021Z,66.09
2019-03-01T03:10:38.580Z,66.23
2019-03-01T03:13:08.807Z,66.02
2019-03-01T03:15:39.948Z,66.23
2019-03-01T03:18:09.426Z,66.16
2019-03-01T03:20:38.888Z,66.33
2019-03-01T03:23:08.436Z,66.19
2019-03-01T03:25:37.936Z,66.09
2019-03-01T03:28:07.419Z,66.23
2019-03-01T03:30:36.974Z,66.23
2019-03-01T03:33:06.463Z,66.28
2019-03-01T03:35:35.945Z,66.15
2019-03-01T03:38:05.972Z,66.12
2019-03-01T03:40:35.435Z,66.15
2019-03-01T03:43:05.016Z,66.12
2019-03-01T03:45:34.568Z,66.21
2019-03-01T03:48:04.331Z,66.42
2019-03-01T03:50:33.872Z,66.41
2019-03-01T03:53:03.345Z,66.41
2019-03-01T03:55:33.091Z,66.14
2019-03-01T03:58:02.654Z,66.29
2019-03-01T04:00:32.185Z,66.51
2019-03-01T04:03:01.728Z,66.38
2019-03-01T04:05:31.207Z,66.31
2019-03-01T04:08:00.678Z,66.28
2019-03-01T04:10:30.237Z,66.19
2019-03-01T04:12:59.728Z,66.06
2019-03-01T04:15:29.221Z,66.20
2019-03-01T04:17:58.729Z,66.10
2019-03-01T04:20:28.188Z,66.23
2019-03-01T04:22:57.719Z,66.09
2019-03-01T04:25:27.212Z,66.20
2019-03-01T04:27:56.679Z,65.79
2019-03-01T04:30:26.278Z,65.71
2019-03-01T04:32:55.797Z,65.92
2019-03-01T04:35:25.244Z,65.94
2019-03-01T04:37:54.710Z,66.09
2019-03-01T04:40:24.273Z,66.13
2019-03-01T04:42:53.748Z,66.03
2019-03-01T04:45:23.213Z,66.16
2019-03-01T04:47:52.714Z,66.31
2019-03-01T04:50:22.283Z,66.28
2019-03-01T04:52:51.761Z,66.31
2019-03-01T04:55:26.772Z,66.36
2019-03-01T04:57:56.249Z,66.43
2019-03-01T05:00:26.478Z,66.34
2019-03-01T05:02:55.963Z,66.60
2019-03-01T05:05:25.438Z,66.58
2019-03-01T05:07:55.002Z,66.72
2019-03-01T05:10:24.504Z,66.79
2019-03-01T05:12:54.138Z,66.83
2019-03-01T05:15:25.325Z,66.77
2019-03-01T05:17:54.881Z,66.70
2019-03-01T05:20:24.425Z,66.90
2019-03-01T05:22:53.926Z,66.88
2019-03-01T05:25:23.395Z,66.86
2019-03-01T05:27:52.891Z,66.70
2019-03-01T05:30:22.520Z,66.76
2019-03-01T05:32:51.984Z,67.03
2019-03-01T05:35:21.474Z,67.05
2019-03-01T05:37:50.950Z,67.13
2019-03-01T05:40:20.437Z,67.09
2019-03-01T05:42:49.911Z,66.81
2019-03-01T05:45:32.657Z,67.03
2019-03-01T05:48:02.120Z,67.02
2019-03-01T05:50:31.593Z,67.07
2019-03-01T05:53:01.114Z,66.83
2019-03-01T05:55:30.640Z,67.01
2019-03-01T05:58:23.162Z,67.11
2019-03-01T06:01:24.108Z,67.09
2019-03-01T06:04:07.571Z,67.01
2019-03-01T06:06:56.055Z,67.11
2019-03-01T06:09:50.755Z,67.21
2019-03-01T06:13:03.710Z,67.09
2019-03-01T06:16:12.490Z,67.16
2019-03-01T06:19:09.556Z,67.09
2019-03-01T06:22:18.114Z,67.19
2019-03-01T06:25:22.782Z,67.15
2019-03-01T06:28:14.947Z,67.18
2019-03-01T06:31:19.702Z,67.25
2019-03-01T06:34:11.960Z,67.31
2019-03-01T06:37:13.202Z,67.35
2019-03-01T06:40:20.318Z,67.37
2019-03-01T06:43:26.396Z,67.39
2019-03-01T06:46:18.122Z,67.33
2019-03-01T06:48:49.247Z,67.26
2019-03-01T06:51:28.767Z,67.50
2019-03-01T06:53:54.073Z,67.85
2019-03-01T06:56:23.577Z,67.96
2019-03-01T06:58:53.402Z,67.88
2019-03-01T07:01:23.711Z,67.60
2019-03-01T07:03:54.154Z,67.59
2019-03-01T07:06:23.782Z,67.40
2019-03-01T07:08:53.287Z,67.74
2019-03-01T07:11:22.783Z,67.87
2019-03-01T07:13:52.259Z,67.83
2019-03-01T07:16:21.793Z,68.20
2019-03-01T07:18:51.256Z,68.35
2019-03-01T07:21:20.733Z,68.30
2019-03-01T07:24:09.719Z,68.31
2019-03-01T07:26:58.579Z,68.26
2019-03-01T07:29:47.481Z,68.30
2019-03-01T07:32:36.345Z,68.35
2019-03-01T07:35:25.274Z,68.20
2019-03-01T07:38:07.320Z,68.33
2019-03-01T07:40:56.239Z,67.87
2019-03-01T07:43:45.070Z,68.34
2019-03-01T07:46:33.917Z,68.25
2019-03-01T07:49:22.759Z,68.21
2019-03-01T07:52:11.689Z,68.24
2019-03-01T07:55:00.650Z,68.29
2019-03-01T07:57:50.533Z,68.35
2019-03-01T08:00:40.188Z,68.34
2019-03-01T08:03:29.027Z,68.39
2019-03-01T08:06:17.921Z,68.43
2019-03-01T08:09:27.768Z,68.34
2019-03-01T08:12:16.673Z,68.43
2019-03-01T08:15:26.501Z,68.00
2019-03-01T08:18:15.361Z,68.13
2019-03-01T08:21:06.471Z,68.11
2019-03-01T08:23:54.900Z,68.16
2019-03-01T08:26:43.825Z,67.83
2019-03-01T08:29:25.253Z,67.62
2019-03-01T08:32:14.128Z,67.28
2019-03-01T08:35:05.145Z,67.29
2019-03-01T08:37:54.356Z,67.55
2019-03-01T08:40:46.597Z,67.37
2019-03-01T08:43:35.844Z,66.51
2019-03-01T08:46:26.859Z,65.99
2019-03-01T08:49:16.079Z,66.45
2019-03-01T08:51:58.565Z,66.46
2019-03-01T08:54:46.526Z,66.21
2019-03-01T08:57:44.022Z,66.17
2019-03-01T09:00:46.942Z,66.37
2019-03-01T09:03:56.673Z,66.29
2019-03-01T09:06:45.520Z,66.02
2019-03-01T09:09:34.430Z,65.90
2019-03-01T09:12:23.263Z,65.95
2019-03-01T09:15:33.080Z,66.27
2019-03-01T09:18:21.893Z,65.64
2019-03-01T09:21:12.875Z,65.77
2019-03-01T09:24:01.510Z,65.98
2019-03-01T09:26:51.639Z,66.20
2019-03-01T09:29:42.206Z,65.97
2019-03-01T09:32:33.902Z,65.77
2019-03-01T09:35:43.144Z,65.80
2019-03-01T09:38:32.178Z,65.91
2019-03-01T09:41:13.652Z,65.65
2019-03-01T09:44:02.971Z,65.68
2019-03-01T09:47:12.889Z,66.18
2019-03-01T09:50:23.422Z,66.31
2019-03-01T09:52:58.538Z,66.43
2019-03-01T09:55:26.537Z,66.74
2019-03-01T09:57:56.093Z,67.07
2019-03-01T10:00:36.147Z,67.17
2019-03-01T10:03:05.816Z,67.36
2019-03-01T10:05:35.272Z,67.77
2019-03-01T10:08:04.909Z,67.95
2019-03-01T10:10:35.756Z,67.92
2019-03-01T10:13:05.373Z,68.10
2019-03-01T10:15:35.042Z,68.22
2019-03-01T10:18:04.579Z,68.19
2019-03-01T10:20:35.115Z,68.22
2019-03-01T10:23:06.336Z,68.12
2019-03-01T10:25:35.790Z,68.30
2019-03-01T10:28:05.366Z,68.63
2019-03-01T10:30:34.810Z,68.80
2019-03-01T10:33:04.409Z,68.92
2019-03-01T10:35:33.845Z,68.87
2019-03-01T10:38:03.353Z,68.93
2019-03-01T10:40:32.934Z,68.69
2019-03-01T10:43:02.448Z,68.94
2019-03-01T10:45:32.469Z,69.05
2019-03-01T10:48:02.074Z,69.00
2019-03-01T10:50:31.620Z,69.30
2019-03-01T10:53:01.136Z,68.83
2019-03-01T10:55:30.694Z,68.86
2019-03-01T10:58:00.205Z,69.04
2019-03-01T11:00:31.547Z,68.76
2019-03-01T11:03:01.042Z,68.89
2019-03-01T11:05:30.640Z,68.77
2019-03-01T11:08:00.253Z,68.81
2019-03-01T11:10:41.301Z,68.42
2019-03-01T11:13:14.898Z,68.79
2019-03-01T11:15:44.421Z,68.99
2019-03-01T11:18:13.903Z,69.15
2019-03-01T11:20:43.526Z,68.87
2019-03-01T11:23:13.352Z,69.10
2019-03-01T11:25:43.196Z,69.37
2019-03-01T11:28:14.202Z,69.25
2019-03-01T11:30:43.693Z,69.12
2019-03-01T11:33:13.267Z,69.25
2019-03-01T11:35:42.962Z,69.18
2019-03-01T11:38:12.605Z,69.14
2019-03-01T11:40:42.387Z,68.90
2019-03-01T11:43:12.019Z,68.74
2019-03-01T11:45:41.580Z,69.08
2019-03-01T11:48:11.107Z,69.06
2019-03-01T11:50:40.714Z,68.96
2019-03-01T11:53:10.320Z,68.65
2019-03-01T11:55:39.825Z,68.85
2019-03-01T11:58:09.305Z,69.07
2019-03-01T12:00:38.972Z,69.17
2019-03-01T12:03:08.662Z,68.67
2019-03-01T12:05:38.164Z,68.63
2019-03-01T12:08:07.747Z,68.90
2019-03-01T12:10:37.336Z,68.64
2019-03-01T12:13:09.556Z,68.88
2019-03-01T12:15:39.081Z,68.98
2019-03-01T12:18:08.562Z,69.02
2019-03-01T12:20:38.091Z,69.18
2019-03-01T12:23:10.528Z,69.13
2019-03-01T12:25:40.085Z,69.03
2019-03-01T12:28:09.607Z,68.66
2019-03-01T12:30:39.205Z,68.96
2019-03-01T12:33:08.732Z,69.14
2019-03-01T12:35:38.228Z,68.75
2019-03-01T12:38:07.759Z,68.60
2019-03-01T12:40:37.333Z,68.80
2019-03-01T12:43:06.918Z,68.90
2019-03-01T12:45:36.450Z,68.68
2019-03-01T12:48:05.973Z,68.95
2019-03-01T12:50:35.609Z,68.82
2019-03-01T12:53:06.793Z,68.90
2019-03-01T12:55:36.425Z,69.01
2019-03-01T12:58:05.952Z,68.88
2019-03-01T13:00:38.021Z,68.79
2019-03-01T13:03:08.965Z,68.71
2019-03-01T13:05:38.896Z,68.77
2019-03-01T13:08:08.432Z,68.77
2019-03-01T13:10:40.364Z,68.97
2019-03-01T13:13:09.778Z,69.03
2019-03-01T13:15:39.369Z,68.88
2019-03-01T13:18:15.558Z,68.89
2019-03-01T13:20:41.060Z,69.06
2019-03-01T13:23:10.728Z,69.12
2019-03-01T13:26:02.916Z,69.12
2019-03-01T13:28:50.241Z,69.00
2019-03-01T13:31:39.207Z,68.80
2019-03-01T13:34:28.116Z,68.98
2019-03-01T13:37:14.701Z,68.84
2019-03-01T13:40:00.044Z,68.72
2019-03-01T13:42:50.637Z,68.68
2019-03-01T13:45:39.620Z,68.60
2019-03-01T13:48:28.516Z,68.64
2019-03-01T13:51:17.990Z,68.80
2019-03-01T13:54:08.942Z,68.11
2019-03-01T13:56:58.633Z,67.65
2019-03-01T13:59:47.531Z,67.51
2019-03-01T14:02:36.527Z,67.30
2019-03-01T14:05:25.413Z,67.43
2019-03-01T14:08:14.280Z,67.36
2019-03-01T14:11:03.117Z,66.89
2019-03-01T14:13:52.035Z,66.68
2019-03-01T14:16:21.805Z,66.98
2019-03-01T14:19:10.674Z,66.72
2019-03-01T14:21:59.529Z,66.88
2019-03-01T14:24:48.433Z,66.64
2019-03-01T14:27:37.317Z,66.60
2019-03-01T14:33:54.974Z,66.83
2019-03-01T14:36:39.816Z,66.68
2019-03-01T14:39:27.616Z,66.86
2019-03-01T14:42:16.468Z,66.85
2019-03-01T14:45:26.265Z,66.84
2019-03-01T14:48:15.282Z,66.90
2019-03-01T14:51:07.085Z,66.81
2019-03-01T14:53:54.857Z,66.64
2019-03-01T15:00:21.118Z,66.79
2019-03-01T15:03:15.976Z,66.83
2019-03-01T15:05:42.120Z,66.72
2019-03-01T15:08:12.343Z,66.70
2019-03-01T15:10:41.948Z,66.52
2019-03-01T15:13:11.537Z,66.68
2019-03-01T15:15:41.257Z,66.11
2019-03-01T15:18:10.998Z,66.64
2019-03-01T15:20:40.501Z,66.88
2019-03-01T15:23:10.209Z,66.46
2019-03-01T15:25:39.751Z,66.28
2019-03-01T15:28:28.635Z,66.33
2019-03-01T15:31:17.508Z,65.80
2019-03-01T15:34:06.417Z,65.29
2019-03-01T15:36:55.982Z,65.57
2019-03-01T15:39:38.313Z,65.72
2019-03-01T15:42:27.125Z,65.84
2019-03-01T15:44:56.639Z,65.97
2019-03-01T15:47:26.704Z,65.79
2019-03-01T15:49:56.952Z,66.07
2019-03-01T15:52:26.461Z,66.42
2019-03-01T15:54:55.965Z,66.11
2019-03-01T15:57:25.441Z,66.34
2019-03-01T15:59:54.994Z,66.47
2019-03-01T16:02:24.528Z,66.57
2019-03-01T16:04:54.189Z,66.61
2019-03-01T16:07:23.684Z,66.60
2019-03-01T16:09:53.177Z,66.31
2019-03-01T16:12:22.671Z,66.19
2019-03-01T16:14:52.222Z,66.14
2019-03-01T16:17:21.913Z,66.31
2019-03-01T16:19:53.568Z,66.25
2019-03-01T16:22:23.133Z,66.26
2019-03-01T16:24:52.651Z,66.41
2019-03-01T16:27:22.212Z,66.39
2019-03-01T16:29:51.725Z,66.30
2019-03-01T16:32:21.294Z,66.25
2019-03-01T16:34:50.778Z,66.41
2019-03-01T16:37:22.649Z,66.22
2019-03-01T16:39:51.572Z,66.42
2019-03-01T16:42:21.006Z,66.51
2019-03-01T16:44:50.475Z,66.62
2019-03-01T16:47:20.029Z,66.26
2019-03-01T16:49:49.479Z,66.43
2019-03-01T16:52:18.986Z,66.29
2019-03-01T16:54:51.505Z,66.08
2019-03-01T16:57:19.706Z,66.16
2019-03-01T16:59:49.746Z,65.89
2019-03-01T17:02:19.338Z,65.87
2019-03-01T17:04:48.841Z,65.92
2019-03-01T17:07:21.473Z,65.41
2019-03-01T17:09:51.401Z,65.46
2019-03-01T17:12:22.462Z,65.36
2019-03-01T17:14:52.032Z,65.22
2019-03-01T17:17:21.602Z,65.20
2019-03-01T17:19:51.067Z,65.20
2019-03-01T17:22:23.200Z,65.39
2019-03-01T17:24:53.607Z,65.09
2019-03-01T17:27:23.070Z,64.97
2019-03-01T17:29:52.566Z,65.01
2019-03-01T17:32:22.071Z,64.95
2019-03-01T17:34:52.184Z,64.70
2019-03-01T17:37:21.765Z,64.70
2019-03-01T17:39:53.141Z,64.39
2019-03-01T17:42:22.482Z,64.64
2019-03-01T17:44:52.044Z,64.76
2019-03-01T17:47:21.549Z,64.63
2019-03-01T17:49:51.035Z,64.27
2019-03-01T17:52:20.602Z,64.48
2019-03-01T17:54:50.128Z,64.58
2019-03-01T17:57:20.174Z,64.53
2019-03-01T17:59:49.733Z,64.38
2019-03-01T18:02:19.227Z,64.39
2019-03-01T18:04:49.767Z,64.62
2019-03-01T18:07:19.260Z,64.38
2019-03-01T18:09:51.933Z,64.32
2019-03-01T18:12:20.616Z,64.37
2019-03-01T18:14:50.676Z,64.17
2019-03-01T18:17:20.178Z,64.04
2019-03-01T18:19:49.667Z,63.77
2019-03-01T18:22:19.239Z,64.08
2019-03-01T18:24:49.960Z,64.06
2019-03-01T18:27:19.968Z,63.93
2019-03-01T18:29:49.499Z,63.77
2019-03-01T18:32:18.952Z,63.57
2019-03-01T18:34:48.669Z,63.48
2019-03-01T18:37:19.815Z,63.53
2019-03-01T18:39:49.497Z,63.65
2019-03-01T18:42:19.061Z,63.20
2019-03-01T18:44:48.581Z,63.23
2019-03-01T18:47:18.028Z,63.19
2019-03-01T18:49:47.650Z,63.03
2019-03-01T18:52:17.651Z,62.66
2019-03-01T18:54:47.930Z,62.96
2019-03-01T18:57:17.421Z,62.83
2019-03-01T18:59:46.979Z,62.70
2019-03-01T19:02:16.547Z,62.69
2019-03-01T19:04:46.271Z,62.53
2019-03-01T19:07:15.813Z,62.42
2019-03-01T19:09:45.339Z,62.67
2019-03-01T19:12:14.939Z,62.33
2019-03-01T19:14:44.479Z,62.39
2019-03-01T19:17:13.957Z,62.48
2019-03-01T19:19:43.559Z,62.26
2019-03-01T19:22:13.065Z,62.31
2019-03-01T19:24:43.521Z,62.36
2019-03-01T19:27:15.519Z,62.08
2019-03-01T19:29:45.336Z,61.77
2019-03-01T19:32:14.866Z,62.21
2019-03-01T19:34:44.507Z,61.94
2019-03-01T19:37:14.537Z,61.60
2019-03-01T19:39:44.116Z,61.97
2019-03-01T19:42:13.672Z,61.68
2019-03-01T19:44:43.195Z,61.67
2019-03-01T19:47:12.656Z,62.00
2019-03-01T19:49:45.179Z,61.79
2019-03-01T19:52:13.639Z,62.01
2019-03-01T19:54:43.211Z,62.11
2019-03-01T19:57:12.745Z,61.98
2019-03-01T19:59:42.317Z,62.08
2019-03-01T20:02:11.898Z,62.23
2019-03-01T20:04:41.470Z,62.18
2019-03-01T20:07:11.032Z,62.04
2019-03-01T20:09:40.600Z,62.20
2019-03-01T20:12:10.295Z,62.70
2019-03-01T20:14:39.802Z,62.82
2019-03-01T20:17:09.435Z,62.90
2019-03-01T20:19:38.967Z,63.65
2019-03-01T20:22:10.391Z,63.86
2019-03-01T20:24:40.390Z,63.99
2019-03-01T20:27:10.766Z,63.60
2019-03-01T20:29:40.223Z,63.94
2019-03-01T20:32:12.542Z,63.24
2019-03-01T20:34:41.294Z,62.65
2019-03-01T20:37:10.868Z,62.60
2019-03-01T20:39:40.399Z,62.83
2019-03-01T20:42:10.054Z,62.83
2019-03-01T20:44:39.643Z,62.81
2019-03-01T20:47:10.960Z,62.85
2019-03-01T20:49:40.530Z,62.85
2019-03-01T20:52:10.052Z,62.83
2019-03-01T20:54:39.542Z,62.77
2019-03-01T20:57:10.814Z,62.87
2019-03-01T20:59:40.494Z,63.02
2019-03-01T21:02:13.109Z,63.34
2019-03-01T21:04:53.062Z,63.84
2019-03-01T21:07:15.731Z,63.32
2019-03-01T21:09:44.142Z,63.36
2019-03-01T21:12:13.733Z,63.19
2019-03-01T21:14:43.360Z,63.33
2019-03-01T21:17:16.782Z,63.08
2019-03-01T21:19:46.159Z,62.98
2019-03-01T21:22:15.755Z,62.94
2019-03-01T21:24:45.296Z,62.86
2019-03-01T21:27:14.812Z,63.12
2019-03-01T21:29:44.696Z,62.81
2019-03-01T21:32:15.646Z,63.05
2019-03-01T21:34:45.179Z,62.83
2019-03-01T21:37:16.582Z,63.32
2019-03-01T21:39:46.009Z,63.79
2019-03-01T21:42:16.864Z,62.98
2019-03-01T21:44:47.024Z,63.21
2019-03-01T21:47:16.640Z,63.82
2019-03-01T21:49:46.137Z,63.58
2019-03-01T21:52:15.615Z,63.86
2019-03-01T21:54:45.201Z,63.47
2019-03-01T21:57:14.843Z,63.00
2019-03-01T21:59:44.368Z,62.39
2019-03-01T22:02:16.977Z,62.03
2019-03-01T22:04:45.235Z,61.50
2019-03-01T22:07:14.711Z,61.53
2019-03-01T22:09:44.555Z,62.13
2019-03-01T22:12:14.001Z,61.79
2019-03-01T22:14:45.659Z,61.64
2019-03-01T22:17:14.854Z,61.90
2019-03-01T22:19:44.376Z,62.21
2019-03-01T22:22:13.869Z,62.54
2019-03-01T22:24:43.344Z,62.67
2019-03-01T22:27:12.840Z,62.28
2019-03-01T22:29:43.655Z,63.55
2019-03-01T22:32:13.549Z,63.18
2019-03-01T22:34:43.050Z,61.62
2019-03-01T22:37:12.719Z,61.58
2019-03-01T22:39:48.338Z,62.89
2019-03-01T22:42:19.259Z,62.24
2019-03-01T22:44:50.761Z,61.25
2019-03-01T22:47:20.237Z,62.35
2019-03-01T22:49:49.754Z,60.75
2019-03-01T22:52:19.335Z,62.34
2019-03-01T22:54:48.796Z,62.98
2019-03-01T22:57:22.446Z,62.62
2019-03-01T22:59:49.562Z,62.88
2019-03-01T23:02:20.084Z,63.44
2019-03-01T23:04:49.665Z,63.34
2019-03-01T23:07:19.163Z,63.64
2019-03-01T23:09:48.644Z,63.51
2019-03-01T23:12:18.191Z,63.74
2019-03-01T23:14:47.796Z,63.84
2019-03-01T23:17:17.319Z,64.04
2019-03-01T23:19:47.811Z,63.83
2019-03-01T23:22:18.032Z,64.15
2019-03-01T23:24:49.380Z,64.29
2019-03-01T23:27:18.722Z,64.07
2019-03-01T23:29:50.976Z,64.10
2019-03-01T23:32:19.445Z,64.21
2019-03-01T23:34:49.013Z,64.41
2019-03-01T23:37:18.526Z,64.50
2019-03-01T23:39:48.020Z,64.66
2019-03-01T23:42:20.864Z,64.36
2019-03-01T23:44:48.741Z,64.36
2019-03-01T23:47:18.238Z,62.32
2019-03-01T23:49:47.689Z,62.44
2019-03-01T23:52:19.578Z,63.00
2019-03-01T23:54:48.509Z,62.59
2019-03-01T23:57:18.036Z,63.48
2019-03-01T23:59:47.550Z,64.09
